sensor_id;sensor_type;location;lat;lon;timestamp;P1;durP1;ratioP1;P2;durP2;ratioP2
24357;SDS011;13668;52.154;5.580;2022-07-04T00:00:48;3.33;;;2.60;;
24357;SDS011;13668;52.154;5.580;2022-07-04T00:03:14;4.35;;;2.78;;
24357;SDS011;13668;52.154;5.580;2022-07-04T00:05:40;4.57;;;2.70;;
24357;SDS011;13668;52.154;5.580;2022-07-04T00:08:06;3.25;;;2.60;;
24357;SDS011;13668;52.154;5.580;2022-07-04T00:10:32;3.25;;;2.75;;
24357;SDS011;13668;52.154;5.580;2022-07-04T00:12:58;4.28;;;2.83;;
24357;SDS011;13668;52.154;5.580;2022-07-04T00:15:24;3.67;;;2.90;;
24357;SDS011;13668;52.154;5.580;2022-07-04T00:17:51;3.35;;;3.03;;
24357;SDS011;13668;52.154;5.580;2022-07-04T00:20:17;4.22;;;2.50;;
24357;SDS011;13668;52.154;5.580;2022-07-04T00:22:43;5.70;;;2.83;;
24357;SDS011;13668;52.154;5.580;2022-07-04T00:25:09;3.53;;;2.67;;
24357;SDS011;13668;52.154;5.580;2022-07-04T00:27:35;4.38;;;2.72;;
24357;SDS011;13668;52.154;5.580;2022-07-04T00:30:02;3.05;;;2.85;;
24357;SDS011;13668;52.154;5.580;2022-07-04T00:32:28;4.47;;;2.85;;
24357;SDS011;13668;52.154;5.580;2022-07-04T00:34:54;4.22;;;2.55;;
24357;SDS011;13668;52.154;5.580;2022-07-04T00:37:20;2.60;;;2.28;;
24357;SDS011;13668;52.154;5.580;2022-07-04T00:39:46;4.85;;;2.72;;
24357;SDS011;13668;52.154;5.580;2022-07-04T00:42:12;4.72;;;2.30;;
24357;SDS011;13668;52.154;5.580;2022-07-04T00:44:38;2.90;;;2.50;;
24357;SDS011;13668;52.154;5.580;2022-07-04T00:47:04;3.78;;;2.72;;
24357;SDS011;13668;52.154;5.580;2022-07-04T00:49:30;3.80;;;2.95;;
24357;SDS011;13668;52.154;5.580;2022-07-04T00:51:56;5.43;;;3.03;;
24357;SDS011;13668;52.154;5.580;2022-07-04T00:54:24;2.97;;;2.72;;
24357;SDS011;13668;52.154;5.580;2022-07-04T00:56:51;4.07;;;2.85;;
24357;SDS011;13668;52.154;5.580;2022-07-04T00:59:17;3.08;;;2.78;;
24357;SDS011;13668;52.154;5.580;2022-07-04T01:01:43;3.65;;;3.33;;
24357;SDS011;13668;52.154;5.580;2022-07-04T01:04:09;5.18;;;2.75;;
24357;SDS011;13668;52.154;5.580;2022-07-04T01:06:35;4.38;;;3.30;;
24357;SDS011;13668;52.154;5.580;2022-07-04T01:09:02;4.82;;;2.60;;
24357;SDS011;13668;52.154;5.580;2022-07-04T01:11:28;4.60;;;2.67;;
24357;SDS011;13668;52.154;5.580;2022-07-04T01:13:54;4.53;;;2.75;;
24357;SDS011;13668;52.154;5.580;2022-07-04T01:16:20;5.35;;;3.00;;
24357;SDS011;13668;52.154;5.580;2022-07-04T01:18:46;3.45;;;2.90;;
24357;SDS011;13668;52.154;5.580;2022-07-04T01:21:12;6.65;;;3.33;;
24357;SDS011;13668;52.154;5.580;2022-07-04T01:23:41;3.38;;;2.72;;
24357;SDS011;13668;52.154;5.580;2022-07-04T01:26:07;4.70;;;3.15;;
24357;SDS011;13668;52.154;5.580;2022-07-04T01:28:33;4.30;;;3.15;;
24357;SDS011;13668;52.154;5.580;2022-07-04T01:30:59;5.15;;;3.03;;
24357;SDS011;13668;52.154;5.580;2022-07-04T01:33:25;4.93;;;2.85;;
24357;SDS011;13668;52.154;5.580;2022-07-04T01:35:52;4.38;;;2.85;;
24357;SDS011;13668;52.154;5.580;2022-07-04T01:38:18;3.58;;;2.78;;
24357;SDS011;13668;52.154;5.580;2022-07-04T01:40:44;4.15;;;3.03;;
24357;SDS011;13668;52.154;5.580;2022-07-04T01:43:10;4.70;;;3.63;;
24357;SDS011;13668;52.154;5.580;2022-07-04T01:45:36;4.45;;;3.55;;
24357;SDS011;13668;52.154;5.580;2022-07-04T01:48:04;4.03;;;3.10;;
24357;SDS011;13668;52.154;5.580;2022-07-04T01:50:30;6.88;;;3.85;;
24357;SDS011;13668;52.154;5.580;2022-07-04T01:52:56;4.65;;;3.97;;
24357;SDS011;13668;52.154;5.580;2022-07-04T01:55:22;4.72;;;3.47;;
24357;SDS011;13668;52.154;5.580;2022-07-04T01:57:48;6.07;;;3.97;;
24357;SDS011;13668;52.154;5.580;2022-07-04T02:00:14;5.40;;;4.18;;
24357;SDS011;13668;52.154;5.580;2022-07-04T02:02:59;4.05;;;2.75;;
24357;SDS011;13668;52.154;5.580;2022-07-04T02:05:25;3.90;;;3.50;;
24357;SDS011;13668;52.154;5.580;2022-07-04T02:07:51;3.92;;;3.40;;
24357;SDS011;13668;52.154;5.580;2022-07-04T02:10:17;3.78;;;3.45;;
24357;SDS011;13668;52.154;5.580;2022-07-04T02:12:43;3.67;;;3.22;;
24357;SDS011;13668;52.154;5.580;2022-07-04T02:15:31;3.15;;;2.90;;
24357;SDS011;13668;52.154;5.580;2022-07-04T02:17:57;3.70;;;3.40;;
24357;SDS011;13668;52.154;5.580;2022-07-04T02:20:23;3.88;;;3.50;;
24357;SDS011;13668;52.154;5.580;2022-07-04T02:22:49;4.82;;;3.95;;
24357;SDS011;13668;52.154;5.580;2022-07-04T02:25:15;4.90;;;3.08;;
24357;SDS011;13668;52.154;5.580;2022-07-04T02:27:41;3.78;;;3.38;;
24357;SDS011;13668;52.154;5.580;2022-07-04T02:30:08;3.60;;;3.20;;
24357;SDS011;13668;52.154;5.580;2022-07-04T02:32:34;4.53;;;3.40;;
24357;SDS011;13668;52.154;5.580;2022-07-04T02:35:00;4.25;;;3.17;;
24357;SDS011;13668;52.154;5.580;2022-07-04T02:37:26;3.38;;;3.08;;
24357;SDS011;13668;52.154;5.580;2022-07-04T02:39:52;3.47;;;3.10;;
24357;SDS011;13668;52.154;5.580;2022-07-04T02:42:18;3.78;;;3.10;;
24357;SDS011;13668;52.154;5.580;2022-07-04T02:44:44;4.10;;;2.90;;
24357;SDS011;13668;52.154;5.580;2022-07-04T02:47:10;3.95;;;3.55;;
24357;SDS011;13668;52.154;5.580;2022-07-04T02:49:36;4.22;;;2.85;;
24357;SDS011;13668;52.154;5.580;2022-07-04T02:52:02;3.60;;;3.20;;
24357;SDS011;13668;52.154;5.580;2022-07-04T02:54:28;3.47;;;3.17;;
24357;SDS011;13668;52.154;5.580;2022-07-04T02:56:54;3.42;;;3.13;;
24357;SDS011;13668;52.154;5.580;2022-07-04T02:59:20;3.72;;;2.88;;
24357;SDS011;13668;52.154;5.580;2022-07-04T03:01:46;4.15;;;3.80;;
24357;SDS011;13668;52.154;5.580;2022-07-04T03:04:12;6.30;;;3.58;;
24357;SDS011;13668;52.154;5.580;2022-07-04T03:06:38;5.85;;;4.20;;
24357;SDS011;13668;52.154;5.580;2022-07-04T03:09:05;6.10;;;4.53;;
24357;SDS011;13668;52.154;5.580;2022-07-04T03:11:31;5.50;;;5.00;;
24357;SDS011;13668;52.154;5.580;2022-07-04T03:13:57;6.80;;;5.03;;
24357;SDS011;13668;52.154;5.580;2022-07-04T03:16:23;6.43;;;5.10;;
24357;SDS011;13668;52.154;5.580;2022-07-04T03:18:49;7.63;;;5.30;;
24357;SDS011;13668;52.154;5.580;2022-07-04T03:21:15;8.73;;;5.95;;
24357;SDS011;13668;52.154;5.580;2022-07-04T03:23:41;7.05;;;6.00;;
24357;SDS011;13668;52.154;5.580;2022-07-04T03:26:07;9.77;;;6.00;;
24357;SDS011;13668;52.154;5.580;2022-07-04T03:28:34;7.55;;;6.38;;
24357;SDS011;13668;52.154;5.580;2022-07-04T03:31:00;10.07;;;6.85;;
24357;SDS011;13668;52.154;5.580;2022-07-04T03:33:26;9.07;;;6.47;;
24357;SDS011;13668;52.154;5.580;2022-07-04T03:35:52;9.38;;;6.53;;
24357;SDS011;13668;52.154;5.580;2022-07-04T03:38:18;11.40;;;6.57;;
24357;SDS011;13668;52.154;5.580;2022-07-04T03:40:44;8.20;;;6.25;;
24357;SDS011;13668;52.154;5.580;2022-07-04T03:43:10;7.43;;;6.05;;
24357;SDS011;13668;52.154;5.580;2022-07-04T03:45:36;8.48;;;6.72;;
24357;SDS011;13668;52.154;5.580;2022-07-04T03:48:02;6.68;;;5.97;;
24357;SDS011;13668;52.154;5.580;2022-07-04T03:50:28;7.13;;;6.43;;
24357;SDS011;13668;52.154;5.580;2022-07-04T03:52:54;12.15;;;7.35;;
24357;SDS011;13668;52.154;5.580;2022-07-04T03:55:20;9.80;;;6.93;;
24357;SDS011;13668;52.154;5.580;2022-07-04T03:57:46;11.35;;;7.55;;
24357;SDS011;13668;52.154;5.580;2022-07-04T04:00:12;7.15;;;6.53;;
24357;SDS011;13668;52.154;5.580;2022-07-04T04:02:38;11.10;;;7.07;;
24357;SDS011;13668;52.154;5.580;2022-07-04T04:05:04;14.55;;;8.88;;
24357;SDS011;13668;52.154;5.580;2022-07-04T04:07:49;9.30;;;8.02;;
24357;SDS011;13668;52.154;5.580;2022-07-04T04:10:15;10.68;;;8.35;;
24357;SDS011;13668;52.154;5.580;2022-07-04T04:12:42;8.95;;;7.93;;
24357;SDS011;13668;52.154;5.580;2022-07-04T04:15:08;12.13;;;8.98;;
24357;SDS011;13668;52.154;5.580;2022-07-04T04:17:34;11.18;;;8.35;;
24357;SDS011;13668;52.154;5.580;2022-07-04T04:20:00;9.10;;;7.38;;
24357;SDS011;13668;52.154;5.580;2022-07-04T04:22:29;14.95;;;9.18;;
24357;SDS011;13668;52.154;5.580;2022-07-04T04:24:55;12.77;;;9.00;;
24357;SDS011;13668;52.154;5.580;2022-07-04T04:27:21;14.90;;;9.60;;
24357;SDS011;13668;52.154;5.580;2022-07-04T04:29:47;10.02;;;8.38;;
24357;SDS011;13668;52.154;5.580;2022-07-04T04:32:13;10.13;;;8.70;;
24357;SDS011;13668;52.154;5.580;2022-07-04T04:34:39;11.52;;;8.77;;
24357;SDS011;13668;52.154;5.580;2022-07-04T04:37:05;11.23;;;8.70;;
24357;SDS011;13668;52.154;5.580;2022-07-04T04:39:31;10.13;;;8.15;;
24357;SDS011;13668;52.154;5.580;2022-07-04T04:41:57;13.18;;;8.48;;
24357;SDS011;13668;52.154;5.580;2022-07-04T04:44:23;11.07;;;8.63;;
24357;SDS011;13668;52.154;5.580;2022-07-04T04:46:49;13.00;;;8.63;;
24357;SDS011;13668;52.154;5.580;2022-07-04T04:49:15;11.38;;;8.40;;
24357;SDS011;13668;52.154;5.580;2022-07-04T04:51:42;12.93;;;9.27;;
24357;SDS011;13668;52.154;5.580;2022-07-04T04:54:08;12.05;;;9.05;;
24357;SDS011;13668;52.154;5.580;2022-07-04T04:56:34;12.15;;;9.38;;
24357;SDS011;13668;52.154;5.580;2022-07-04T04:59:00;11.05;;;8.65;;
24357;SDS011;13668;52.154;5.580;2022-07-04T05:01:26;11.15;;;9.35;;
24357;SDS011;13668;52.154;5.580;2022-07-04T05:03:52;14.80;;;9.07;;
24357;SDS011;13668;52.154;5.580;2022-07-04T05:06:18;14.38;;;9.63;;
24357;SDS011;13668;52.154;5.580;2022-07-04T05:08:44;10.52;;;8.38;;
24357;SDS011;13668;52.154;5.580;2022-07-04T05:11:10;11.88;;;9.15;;
24357;SDS011;13668;52.154;5.580;2022-07-04T05:13:36;9.73;;;7.88;;
24357;SDS011;13668;52.154;5.580;2022-07-04T05:16:02;11.95;;;9.13;;
24357;SDS011;13668;52.154;5.580;2022-07-04T05:18:28;9.60;;;7.95;;
24357;SDS011;13668;52.154;5.580;2022-07-04T05:20:54;8.80;;;7.13;;
24357;SDS011;13668;52.154;5.580;2022-07-04T05:23:20;10.93;;;7.60;;
24357;SDS011;13668;52.154;5.580;2022-07-04T05:25:49;9.18;;;7.50;;
24357;SDS011;13668;52.154;5.580;2022-07-04T05:28:15;9.57;;;7.45;;
24357;SDS011;13668;52.154;5.580;2022-07-04T05:30:41;12.88;;;7.18;;
24357;SDS011;13668;52.154;5.580;2022-07-04T05:33:07;12.93;;;7.03;;
24357;SDS011;13668;52.154;5.580;2022-07-04T05:35:33;12.90;;;7.78;;
24357;SDS011;13668;52.154;5.580;2022-07-04T05:37:59;11.30;;;6.45;;
24357;SDS011;13668;52.154;5.580;2022-07-04T05:40:25;10.45;;;7.47;;
24357;SDS011;13668;52.154;5.580;2022-07-04T05:42:51;9.45;;;7.70;;
24357;SDS011;13668;52.154;5.580;2022-07-04T05:45:17;10.82;;;6.82;;
24357;SDS011;13668;52.154;5.580;2022-07-04T05:47:43;8.75;;;6.80;;
24357;SDS011;13668;52.154;5.580;2022-07-04T05:50:09;10.43;;;7.40;;
24357;SDS011;13668;52.154;5.580;2022-07-04T05:52:36;10.63;;;6.53;;
24357;SDS011;13668;52.154;5.580;2022-07-04T05:55:02;11.55;;;6.90;;
24357;SDS011;13668;52.154;5.580;2022-07-04T05:57:28;9.52;;;6.03;;
24357;SDS011;13668;52.154;5.580;2022-07-04T05:59:54;8.88;;;6.18;;
24357;SDS011;13668;52.154;5.580;2022-07-04T06:02:19;8.63;;;5.70;;
24357;SDS011;13668;52.154;5.580;2022-07-04T06:04:45;8.82;;;5.53;;
24357;SDS011;13668;52.154;5.580;2022-07-04T06:07:11;8.20;;;5.63;;
24357;SDS011;13668;52.154;5.580;2022-07-04T06:09:37;11.52;;;4.68;;
24357;SDS011;13668;52.154;5.580;2022-07-04T06:12:04;7.15;;;4.85;;
24357;SDS011;13668;52.154;5.580;2022-07-04T06:14:30;8.02;;;4.82;;
24357;SDS011;13668;52.154;5.580;2022-07-04T06:16:56;6.75;;;4.35;;
24357;SDS011;13668;52.154;5.580;2022-07-04T06:19:22;8.45;;;4.47;;
24357;SDS011;13668;52.154;5.580;2022-07-04T06:21:48;7.55;;;4.57;;
24357;SDS011;13668;52.154;5.580;2022-07-04T06:24:14;6.18;;;4.43;;
24357;SDS011;13668;52.154;5.580;2022-07-04T06:26:40;8.20;;;4.43;;
24357;SDS011;13668;52.154;5.580;2022-07-04T06:29:06;7.70;;;4.65;;
24357;SDS011;13668;52.154;5.580;2022-07-04T06:31:32;9.90;;;4.13;;
24357;SDS011;13668;52.154;5.580;2022-07-04T06:33:58;4.78;;;4.18;;
24357;SDS011;13668;52.154;5.580;2022-07-04T06:36:44;8.40;;;3.88;;
24357;SDS011;13668;52.154;5.580;2022-07-04T06:39:10;9.30;;;4.75;;
24357;SDS011;13668;52.154;5.580;2022-07-04T06:41:36;10.60;;;4.57;;
24357;SDS011;13668;52.154;5.580;2022-07-04T06:44:02;5.85;;;3.85;;
24357;SDS011;13668;52.154;5.580;2022-07-04T06:46:29;7.60;;;4.00;;
24357;SDS011;13668;52.154;5.580;2022-07-04T06:48:55;8.20;;;3.60;;
24357;SDS011;13668;52.154;5.580;2022-07-04T06:51:21;5.13;;;2.80;;
24357;SDS011;13668;52.154;5.580;2022-07-04T06:53:47;6.75;;;3.25;;
24357;SDS011;13668;52.154;5.580;2022-07-04T06:56:13;5.53;;;3.35;;
24357;SDS011;13668;52.154;5.580;2022-07-04T06:58:39;5.97;;;2.95;;
24357;SDS011;13668;52.154;5.580;2022-07-04T07:01:05;5.68;;;3.00;;
24357;SDS011;13668;52.154;5.580;2022-07-04T07:03:31;4.40;;;2.83;;
24357;SDS011;13668;52.154;5.580;2022-07-04T07:05:57;5.72;;;2.92;;
24357;SDS011;13668;52.154;5.580;2022-07-04T07:08:23;5.10;;;3.35;;
24357;SDS011;13668;52.154;5.580;2022-07-04T07:10:49;8.10;;;3.30;;
24357;SDS011;13668;52.154;5.580;2022-07-04T07:13:15;9.25;;;3.60;;
24357;SDS011;13668;52.154;5.580;2022-07-04T07:15:41;9.00;;;2.75;;
24357;SDS011;13668;52.154;5.580;2022-07-04T07:18:07;6.00;;;2.92;;
24357;SDS011;13668;52.154;5.580;2022-07-04T07:20:33;5.43;;;3.28;;
24357;SDS011;13668;52.154;5.580;2022-07-04T07:23:02;7.03;;;2.97;;
24357;SDS011;13668;52.154;5.580;2022-07-04T07:25:28;7.10;;;3.38;;
24357;SDS011;13668;52.154;5.580;2022-07-04T07:27:55;5.10;;;3.08;;
24357;SDS011;13668;52.154;5.580;2022-07-04T07:30:21;4.63;;;3.05;;
24357;SDS011;13668;52.154;5.580;2022-07-04T07:32:47;5.55;;;3.03;;
24357;SDS011;13668;52.154;5.580;2022-07-04T07:35:13;7.63;;;3.42;;
24357;SDS011;13668;52.154;5.580;2022-07-04T07:37:39;7.30;;;3.30;;
24357;SDS011;13668;52.154;5.580;2022-07-04T07:40:06;5.10;;;3.30;;
24357;SDS011;13668;52.154;5.580;2022-07-04T07:42:32;5.13;;;3.25;;
24357;SDS011;13668;52.154;5.580;2022-07-04T07:44:58;4.88;;;2.95;;
24357;SDS011;13668;52.154;5.580;2022-07-04T07:47:24;6.72;;;3.15;;
24357;SDS011;13668;52.154;5.580;2022-07-04T07:49:50;6.20;;;3.28;;
24357;SDS011;13668;52.154;5.580;2022-07-04T07:52:16;10.02;;;3.33;;
24357;SDS011;13668;52.154;5.580;2022-07-04T07:54:42;3.83;;;2.63;;
24357;SDS011;13668;52.154;5.580;2022-07-04T07:57:08;5.45;;;2.85;;
24357;SDS011;13668;52.154;5.580;2022-07-04T07:59:34;5.03;;;3.33;;
24357;SDS011;13668;52.154;5.580;2022-07-04T08:02:00;6.97;;;3.58;;
24357;SDS011;13668;52.154;5.580;2022-07-04T08:04:26;6.03;;;3.00;;
24357;SDS011;13668;52.154;5.580;2022-07-04T08:07:07;5.07;;;2.95;;
24357;SDS011;13668;52.154;5.580;2022-07-04T08:09:33;6.82;;;2.47;;
24357;SDS011;13668;52.154;5.580;2022-07-04T08:12:00;5.25;;;3.17;;
24357;SDS011;13668;52.154;5.580;2022-07-04T08:14:27;4.35;;;2.83;;
24357;SDS011;13668;52.154;5.580;2022-07-04T08:16:53;6.40;;;2.35;;
24357;SDS011;13668;52.154;5.580;2022-07-04T08:19:19;7.72;;;2.50;;
24357;SDS011;13668;52.154;5.580;2022-07-04T08:21:45;3.50;;;2.55;;
24357;SDS011;13668;52.154;5.580;2022-07-04T08:24:12;6.30;;;1.90;;
24357;SDS011;13668;52.154;5.580;2022-07-04T08:26:38;3.83;;;2.15;;
24357;SDS011;13668;52.154;5.580;2022-07-04T08:29:04;4.88;;;2.00;;
24357;SDS011;13668;52.154;5.580;2022-07-04T08:31:30;7.13;;;2.45;;
24357;SDS011;13668;52.154;5.580;2022-07-04T08:33:56;4.53;;;2.72;;
24357;SDS011;13668;52.154;5.580;2022-07-04T08:36:22;4.63;;;2.78;;
24357;SDS011;13668;52.154;5.580;2022-07-04T08:38:48;4.63;;;2.72;;
24357;SDS011;13668;52.154;5.580;2022-07-04T08:41:15;6.75;;;3.20;;
24357;SDS011;13668;52.154;5.580;2022-07-04T08:43:41;5.63;;;2.85;;
24357;SDS011;13668;52.154;5.580;2022-07-04T08:46:08;3.70;;;2.58;;
24357;SDS011;13668;52.154;5.580;2022-07-04T08:48:35;4.38;;;2.17;;
24357;SDS011;13668;52.154;5.580;2022-07-04T08:51:10;6.65;;;2.05;;
24357;SDS011;13668;52.154;5.580;2022-07-04T08:53:38;2.80;;;1.80;;
24357;SDS011;13668;52.154;5.580;2022-07-04T08:56:05;6.80;;;1.92;;
24357;SDS011;13668;52.154;5.580;2022-07-04T08:58:50;4.03;;;1.73;;
24357;SDS011;13668;52.154;5.580;2022-07-04T09:01:17;4.78;;;2.08;;
24357;SDS011;13668;52.154;5.580;2022-07-04T09:03:44;3.28;;;1.63;;
24357;SDS011;13668;52.154;5.580;2022-07-04T09:06:11;5.38;;;2.15;;
24357;SDS011;13668;52.154;5.580;2022-07-04T09:08:38;4.80;;;1.92;;
24357;SDS011;13668;52.154;5.580;2022-07-04T09:11:04;3.00;;;1.30;;
24357;SDS011;13668;52.154;5.580;2022-07-04T09:13:30;3.53;;;1.67;;
24357;SDS011;13668;52.154;5.580;2022-07-04T09:15:56;7.18;;;1.77;;
24357;SDS011;13668;52.154;5.580;2022-07-04T09:20:49;4.78;;;1.75;;
24357;SDS011;13668;52.154;5.580;2022-07-04T09:23:33;2.60;;;1.50;;
24357;SDS011;13668;52.154;5.580;2022-07-04T09:28:31;4.75;;;1.30;;
24357;SDS011;13668;52.154;5.580;2022-07-04T09:30:57;3.95;;;1.48;;
24357;SDS011;13668;52.154;5.580;2022-07-04T09:33:42;3.40;;;1.65;;
24357;SDS011;13668;52.154;5.580;2022-07-04T09:36:16;4.68;;;1.73;;
24357;SDS011;13668;52.154;5.580;2022-07-04T09:38:43;3.83;;;1.88;;
24357;SDS011;13668;52.154;5.580;2022-07-04T09:41:09;4.30;;;2.08;;
24357;SDS011;13668;52.154;5.580;2022-07-04T09:44:00;7.43;;;1.90;;
24357;SDS011;13668;52.154;5.580;2022-07-04T09:46:26;2.25;;;1.10;;
24357;SDS011;13668;52.154;5.580;2022-07-04T09:48:52;5.03;;;1.20;;
24357;SDS011;13668;52.154;5.580;2022-07-04T09:56:41;2.00;;;0.90;;
24357;SDS011;13668;52.154;5.580;2022-07-04T09:59:07;4.90;;;0.90;;
24357;SDS011;13668;52.154;5.580;2022-07-04T10:01:34;6.30;;;0.93;;
24357;SDS011;13668;52.154;5.580;2022-07-04T10:04:00;1.75;;;0.63;;
24357;SDS011;13668;52.154;5.580;2022-07-04T10:06:30;1.35;;;0.70;;
24357;SDS011;13668;52.154;5.580;2022-07-04T10:09:04;2.42;;;0.85;;
24357;SDS011;13668;52.154;5.580;2022-07-04T10:11:34;2.35;;;1.05;;
24357;SDS011;13668;52.154;5.580;2022-07-04T10:14:01;2.35;;;0.70;;
24357;SDS011;13668;52.154;5.580;2022-07-04T10:16:27;1.00;;;0.68;;
24357;SDS011;13668;52.154;5.580;2022-07-04T10:18:53;1.00;;;0.63;;
24357;SDS011;13668;52.154;5.580;2022-07-04T10:21:20;1.13;;;0.80;;
24357;SDS011;13668;52.154;5.580;2022-07-04T10:23:46;0.85;;;0.85;;
24357;SDS011;13668;52.154;5.580;2022-07-04T10:26:13;2.53;;;0.65;;
24357;SDS011;13668;52.154;5.580;2022-07-04T10:28:39;0.77;;;0.77;;
24357;SDS011;13668;52.154;5.580;2022-07-04T10:31:05;2.05;;;0.90;;
24357;SDS011;13668;52.154;5.580;2022-07-04T10:33:31;1.58;;;1.20;;
24357;SDS011;13668;52.154;5.580;2022-07-04T10:35:58;2.08;;;1.20;;
24357;SDS011;13668;52.154;5.580;2022-07-04T10:38:31;2.05;;;0.95;;
24357;SDS011;13668;52.154;5.580;2022-07-04T10:41:04;1.23;;;0.90;;
24357;SDS011;13668;52.154;5.580;2022-07-04T10:48:35;1.75;;;0.88;;
24357;SDS011;13668;52.154;5.580;2022-07-04T10:51:02;2.08;;;1.10;;
24357;SDS011;13668;52.154;5.580;2022-07-04T10:53:28;2.95;;;0.90;;
24357;SDS011;13668;52.154;5.580;2022-07-04T10:56:02;2.88;;;1.00;;
24357;SDS011;13668;52.154;5.580;2022-07-04T10:58:41;2.25;;;0.85;;
24357;SDS011;13668;52.154;5.580;2022-07-04T11:01:14;2.83;;;1.30;;
24357;SDS011;13668;52.154;5.580;2022-07-04T11:03:47;1.38;;;1.00;;
24357;SDS011;13668;52.154;5.580;2022-07-04T11:11:58;1.15;;;1.02;;
24357;SDS011;13668;52.154;5.580;2022-07-04T11:14:31;3.63;;;1.50;;
24357;SDS011;13668;52.154;5.580;2022-07-04T11:16:57;1.48;;;0.75;;
24357;SDS011;13668;52.154;5.580;2022-07-04T11:19:23;1.40;;;1.17;;
24357;SDS011;13668;52.154;5.580;2022-07-04T11:21:49;2.45;;;1.58;;
24357;SDS011;13668;52.154;5.580;2022-07-04T11:24:15;3.30;;;1.10;;
24357;SDS011;13668;52.154;5.580;2022-07-04T11:26:42;2.60;;;1.10;;
24357;SDS011;13668;52.154;5.580;2022-07-04T11:29:08;2.08;;;1.30;;
24357;SDS011;13668;52.154;5.580;2022-07-04T11:31:38;2.33;;;1.50;;
24357;SDS011;13668;52.154;5.580;2022-07-04T11:34:04;1.10;;;0.93;;
24357;SDS011;13668;52.154;5.580;2022-07-04T11:36:30;2.08;;;1.13;;
24357;SDS011;13668;52.154;5.580;2022-07-04T11:39:03;0.90;;;0.88;;
24357;SDS011;13668;52.154;5.580;2022-07-04T11:41:37;1.50;;;0.75;;
24357;SDS011;13668;52.154;5.580;2022-07-04T11:44:23;1.40;;;0.60;;
24357;SDS011;13668;52.154;5.580;2022-07-04T11:49:34;2.90;;;0.90;;
24357;SDS011;13668;52.154;5.580;2022-07-04T11:52:01;1.77;;;0.80;;
24357;SDS011;13668;52.154;5.580;2022-07-04T11:54:27;1.23;;;0.73;;
24357;SDS011;13668;52.154;5.580;2022-07-04T11:57:07;1.95;;;0.80;;
24357;SDS011;13668;52.154;5.580;2022-07-04T11:59:33;3.53;;;0.80;;
24357;SDS011;13668;52.154;5.580;2022-07-04T12:02:09;1.83;;;0.75;;
24357;SDS011;13668;52.154;5.580;2022-07-04T12:04:35;3.45;;;0.73;;
24357;SDS011;13668;52.154;5.580;2022-07-04T12:07:07;1.15;;;0.70;;
24357;SDS011;13668;52.154;5.580;2022-07-04T12:09:34;1.30;;;0.80;;
24357;SDS011;13668;52.154;5.580;2022-07-04T12:12:00;0.82;;;0.82;;
24357;SDS011;13668;52.154;5.580;2022-07-04T12:14:26;3.08;;;0.73;;
24357;SDS011;13668;52.154;5.580;2022-07-04T12:19:37;1.58;;;0.80;;
24357;SDS011;13668;52.154;5.580;2022-07-04T12:22:03;2.15;;;0.70;;
24357;SDS011;13668;52.154;5.580;2022-07-04T12:24:39;1.10;;;0.70;;
24357;SDS011;13668;52.154;5.580;2022-07-04T12:27:05;1.40;;;0.82;;
24357;SDS011;13668;52.154;5.580;2022-07-04T12:29:31;1.65;;;0.80;;
24357;SDS011;13668;52.154;5.580;2022-07-04T12:31:57;1.70;;;0.70;;
24357;SDS011;13668;52.154;5.580;2022-07-04T12:34:23;1.77;;;0.70;;
24357;SDS011;13668;52.154;5.580;2022-07-04T12:36:53;1.98;;;0.82;;
24357;SDS011;13668;52.154;5.580;2022-07-04T12:39:28;2.92;;;1.00;;
24357;SDS011;13668;52.154;5.580;2022-07-04T12:42:05;3.13;;;1.00;;
24357;SDS011;13668;52.154;5.580;2022-07-04T12:44:33;0.85;;;0.82;;
24357;SDS011;13668;52.154;5.580;2022-07-04T12:46:59;0.93;;;0.82;;
24357;SDS011;13668;52.154;5.580;2022-07-04T12:49:25;1.70;;;0.70;;
24357;SDS011;13668;52.154;5.580;2022-07-04T12:51:52;1.17;;;0.80;;
24357;SDS011;13668;52.154;5.580;2022-07-04T12:54:25;1.88;;;0.65;;
24357;SDS011;13668;52.154;5.580;2022-07-04T12:57:02;1.23;;;0.82;;
24357;SDS011;13668;52.154;5.580;2022-07-04T12:59:28;1.42;;;0.75;;
24357;SDS011;13668;52.154;5.580;2022-07-04T13:01:54;1.42;;;0.80;;
24357;SDS011;13668;52.154;5.580;2022-07-04T13:04:22;2.15;;;0.85;;
24357;SDS011;13668;52.154;5.580;2022-07-04T13:06:50;2.78;;;0.75;;
24357;SDS011;13668;52.154;5.580;2022-07-04T13:09:17;1.30;;;0.80;;
24357;SDS011;13668;52.154;5.580;2022-07-04T13:11:43;1.77;;;0.75;;
24357;SDS011;13668;52.154;5.580;2022-07-04T13:14:27;1.65;;;0.77;;
24357;SDS011;13668;52.154;5.580;2022-07-04T13:16:53;1.98;;;0.65;;
24357;SDS011;13668;52.154;5.580;2022-07-04T13:19:19;1.85;;;0.85;;
24357;SDS011;13668;52.154;5.580;2022-07-04T13:21:45;1.40;;;0.77;;
24357;SDS011;13668;52.154;5.580;2022-07-04T13:24:12;1.42;;;0.57;;
24357;SDS011;13668;52.154;5.580;2022-07-04T13:26:38;2.08;;;0.63;;
24357;SDS011;13668;52.154;5.580;2022-07-04T13:29:05;1.02;;;0.70;;
24357;SDS011;13668;52.154;5.580;2022-07-04T13:31:31;0.98;;;0.80;;
24357;SDS011;13668;52.154;5.580;2022-07-04T13:33:57;3.03;;;0.90;;
24357;SDS011;13668;52.154;5.580;2022-07-04T13:36:23;2.17;;;0.55;;
24357;SDS011;13668;52.154;5.580;2022-07-04T13:38:49;0.82;;;0.60;;
24357;SDS011;13668;52.154;5.580;2022-07-04T13:41:15;3.15;;;0.95;;
24357;SDS011;13668;52.154;5.580;2022-07-04T13:43:41;2.28;;;0.80;;
24357;SDS011;13668;52.154;5.580;2022-07-04T13:46:07;1.10;;;0.93;;
24357;SDS011;13668;52.154;5.580;2022-07-04T13:48:33;1.33;;;0.60;;
24357;SDS011;13668;52.154;5.580;2022-07-04T13:50:59;1.10;;;0.68;;
24357;SDS011;13668;52.154;5.580;2022-07-04T13:53:25;2.15;;;0.60;;
24357;SDS011;13668;52.154;5.580;2022-07-04T13:55:51;0.82;;;0.68;;
24357;SDS011;13668;52.154;5.580;2022-07-04T13:58:17;2.35;;;0.80;;
24357;SDS011;13668;52.154;5.580;2022-07-04T14:00:43;2.13;;;1.00;;
24357;SDS011;13668;52.154;5.580;2022-07-04T14:03:10;1.00;;;0.55;;
24357;SDS011;13668;52.154;5.580;2022-07-04T14:05:36;1.60;;;0.63;;
24357;SDS011;13668;52.154;5.580;2022-07-04T14:08:02;1.45;;;0.77;;
24357;SDS011;13668;52.154;5.580;2022-07-04T14:10:28;5.25;;;1.05;;
24357;SDS011;13668;52.154;5.580;2022-07-04T14:12:54;1.05;;;0.80;;
24357;SDS011;13668;52.154;5.580;2022-07-04T14:15:20;1.45;;;0.60;;
24357;SDS011;13668;52.154;5.580;2022-07-04T14:17:46;2.35;;;0.65;;
24357;SDS011;13668;52.154;5.580;2022-07-04T14:20:12;0.93;;;0.60;;
24357;SDS011;13668;52.154;5.580;2022-07-04T14:22:38;2.58;;;0.77;;
24357;SDS011;13668;52.154;5.580;2022-07-04T14:25:05;0.98;;;0.70;;
24357;SDS011;13668;52.154;5.580;2022-07-04T14:27:31;1.17;;;0.70;;
24357;SDS011;13668;52.154;5.580;2022-07-04T14:29:57;1.60;;;0.73;;
24357;SDS011;13668;52.154;5.580;2022-07-04T14:32:24;3.13;;;0.73;;
24357;SDS011;13668;52.154;5.580;2022-07-04T14:34:49;3.08;;;0.93;;
24357;SDS011;13668;52.154;5.580;2022-07-04T14:37:15;1.63;;;0.88;;
24357;SDS011;13668;52.154;5.580;2022-07-04T14:39:41;2.15;;;0.65;;
24357;SDS011;13668;52.154;5.580;2022-07-04T14:42:10;2.00;;;0.70;;
24357;SDS011;13668;52.154;5.580;2022-07-04T14:44:36;1.48;;;0.70;;
24357;SDS011;13668;52.154;5.580;2022-07-04T14:47:03;2.22;;;0.77;;
24357;SDS011;13668;52.154;5.580;2022-07-04T14:49:29;2.03;;;0.70;;
24357;SDS011;13668;52.154;5.580;2022-07-04T14:51:55;1.85;;;0.80;;
24357;SDS011;13668;52.154;5.580;2022-07-04T14:54:22;1.33;;;0.90;;
24357;SDS011;13668;52.154;5.580;2022-07-04T14:56:48;1.27;;;0.75;;
24357;SDS011;13668;52.154;5.580;2022-07-04T14:59:14;2.88;;;0.70;;
24357;SDS011;13668;52.154;5.580;2022-07-04T15:01:40;3.38;;;0.77;;
24357;SDS011;13668;52.154;5.580;2022-07-04T15:04:06;1.92;;;0.63;;
24357;SDS011;13668;52.154;5.580;2022-07-04T15:06:32;2.85;;;0.80;;
24357;SDS011;13668;52.154;5.580;2022-07-04T15:08:58;1.52;;;0.88;;
24357;SDS011;13668;52.154;5.580;2022-07-04T15:11:24;1.38;;;1.00;;